DAL525 KATL-KLGA
Flight info
| Callsign | DAL525 |
|---|---|
| Flight time | 1h 30m |
| Altitude | 37000 |
| Route | JACCC2 KELLN BYJAC Q60 HURTS PROUD2 |
| Aircraft | A321/M-SDE3FGHIRWY/LB1 |
Departure
| Time | 2026-05-07 16:42 |
|---|---|
| Airport | Hartsfield Jackson Atlanta International Airport (KATL) |
Arrival
| Time | 2026-05-07 18:12 |
|---|---|
| Airport | LaGuardia Airport (KLGA) |
| Time | Latitude | Longitude | Altitude | Speed | Heading |
|---|---|---|---|---|---|
| 2026-05-07 16:17 | 33.63792 | -84.43201 | 1007 ft | 0 kts | 296° |
| 2026-05-07 16:32 | 33.63791 | -84.43198 | 1007 ft | 1 kts | 296° |
| 2026-05-07 16:33 | 33.63786 | -84.43188 | 1007 ft | 2 kts | 291° |
| 2026-05-07 16:33 | 33.63784 | -84.43170 | 1007 ft | 2 kts | 270° |
| 2026-05-07 16:33 | 33.63785 | -84.43153 | 1007 ft | 2 kts | 254° |
| 2026-05-07 16:33 | 33.63791 | -84.43136 | 1007 ft | 2 kts | 237° |
| 2026-05-07 16:34 | 33.63796 | -84.43127 | 1007 ft | 1 kts | 227° |
| 2026-05-07 16:34 | 33.63800 | -84.43123 | 1007 ft | 0 kts | 227° |
| 2026-05-07 16:35 | 33.63799 | -84.43124 | 1007 ft | 0 kts | 225° |
| 2026-05-07 16:36 | 33.63794 | -84.43127 | 1007 ft | 1 kts | 197° |
| 2026-05-07 16:36 | 33.63771 | -84.43130 | 1007 ft | 4 kts | 180° |
| 2026-05-07 16:36 | 33.63725 | -84.43129 | 1007 ft | 8 kts | 180° |
| 2026-05-07 16:36 | 33.63669 | -84.43095 | 1007 ft | 10 kts | 116° |
| 2026-05-07 16:37 | 33.63664 | -84.42992 | 1007 ft | 13 kts | 90° |
| 2026-05-07 16:37 | 33.63664 | -84.42868 | 1007 ft | 16 kts | 90° |
| 2026-05-07 16:37 | 33.63656 | -84.42725 | 1007 ft | 18 kts | 95° |
| 2026-05-07 16:37 | 33.63655 | -84.42568 | 1007 ft | 19 kts | 90° |
| 2026-05-07 16:38 | 33.63655 | -84.42408 | 1006 ft | 19 kts | 90° |
| 2026-05-07 16:38 | 33.63655 | -84.42246 | 1002 ft | 16 kts | 90° |
| 2026-05-07 16:38 | 33.63620 | -84.42128 | 1001 ft | 15 kts | 120° |
| 2026-05-07 16:38 | 33.63582 | -84.42004 | 1001 ft | 16 kts | 91° |
| 2026-05-07 16:39 | 33.63581 | -84.41860 | 1001 ft | 18 kts | 90° |
| 2026-05-07 16:39 | 33.63581 | -84.41692 | 1000 ft | 20 kts | 90° |
| 2026-05-07 16:39 | 33.63581 | -84.41519 | 997 ft | 21 kts | 90° |
| 2026-05-07 16:39 | 33.63582 | -84.41335 | 994 ft | 22 kts | 90° |
| 2026-05-07 16:40 | 33.63581 | -84.41142 | 991 ft | 23 kts | 90° |
| 2026-05-07 16:40 | 33.63581 | -84.40962 | 988 ft | 15 kts | 92° |
| 2026-05-07 16:40 | 33.63508 | -84.40906 | 988 ft | 14 kts | 179° |
| 2026-05-07 16:40 | 33.63471 | -84.40929 | 988 ft | 5 kts | 261° |
| 2026-05-07 16:41 | 33.63470 | -84.41042 | 989 ft | 38 kts | 270° |
| 2026-05-07 16:41 | 33.63469 | -84.41660 | 1000 ft | 106 kts | 271° |
| 2026-05-07 16:41 | 33.63470 | -84.42797 | 1005 ft | 163 kts | 270° |
| 2026-05-07 16:41 | 33.63461 | -84.44218 | 1472 ft | 173 kts | 270° |
| 2026-05-07 16:42 | 33.63436 | -84.45628 | 2270 ft | 168 kts | 271° |
| 2026-05-07 16:42 | 33.63403 | -84.47060 | 2772 ft | 180 kts | 270° |
| 2026-05-07 16:42 | 33.63106 | -84.48586 | 3159 ft | 201 kts | 249° |
| 2026-05-07 16:42 | 33.62418 | -84.50120 | 3561 ft | 220 kts | 245° |
| 2026-05-07 16:43 | 33.61642 | -84.51823 | 3944 ft | 241 kts | 245° |
| 2026-05-07 16:43 | 33.60839 | -84.53656 | 4526 ft | 254 kts | 246° |
| 2026-05-07 16:43 | 33.60035 | -84.55534 | 5404 ft | 254 kts | 246° |
| 2026-05-07 16:43 | 33.59021 | -84.57243 | 6278 ft | 260 kts | 226° |
| 2026-05-07 16:44 | 33.57415 | -84.58278 | 7134 ft | 272 kts | 201° |
| 2026-05-07 16:44 | 33.55507 | -84.58471 | 7966 ft | 281 kts | 188° |
| 2026-05-07 16:44 | 33.53578 | -84.58456 | 8759 ft | 282 kts | 188° |
| 2026-05-07 16:44 | 33.51605 | -84.58444 | 9534 ft | 283 kts | 188° |
| 2026-05-07 16:45 | 33.49641 | -84.58372 | 10276 ft | 290 kts | 181° |
| 2026-05-07 16:45 | 33.47703 | -84.57480 | 10942 ft | 314 kts | 154° |
| 2026-05-07 16:45 | 33.46166 | -84.55527 | 11554 ft | 338 kts | 126° |
| 2026-05-07 16:45 | 33.45419 | -84.52765 | 11886 ft | 363 kts | 98° |
| 2026-05-07 16:46 | 33.45360 | -84.49696 | 12193 ft | 381 kts | 89° |
| 2026-05-07 16:46 | 33.45480 | -84.46468 | 12473 ft | 397 kts | 89° |
| 2026-05-07 16:46 | 33.45579 | -84.43140 | 12881 ft | 407 kts | 90° |
| 2026-05-07 16:46 | 33.45613 | -84.39752 | 13427 ft | 412 kts | 91° |
| 2026-05-07 16:47 | 33.45629 | -84.36292 | 13955 ft | 418 kts | 89° |
| 2026-05-07 16:47 | 33.46079 | -84.32877 | 14446 ft | 423 kts | 73° |
| 2026-05-07 16:47 | 33.47191 | -84.29594 | 14992 ft | 424 kts | 60° |
| 2026-05-07 16:47 | 33.48585 | -84.26472 | 15506 ft | 427 kts | 57° |
| 2026-05-07 16:48 | 33.50028 | -84.23390 | 15996 ft | 432 kts | 57° |
| 2026-05-07 16:48 | 33.51508 | -84.20213 | 16499 ft | 437 kts | 57° |
| 2026-05-07 16:48 | 33.52979 | -84.17005 | 16965 ft | 443 kts | 57° |
| 2026-05-07 16:48 | 33.54446 | -84.13765 | 17487 ft | 446 kts | 57° |
| 2026-05-07 16:49 | 33.55915 | -84.10487 | 18061 ft | 447 kts | 57° |
| 2026-05-07 16:49 | 33.57381 | -84.07201 | 18597 ft | 449 kts | 57° |
| 2026-05-07 16:49 | 33.58848 | -84.03909 | 19058 ft | 453 kts | 58° |
| 2026-05-07 16:49 | 33.60320 | -84.00599 | 19520 ft | 456 kts | 58° |
| 2026-05-07 16:50 | 33.61816 | -83.97229 | 19995 ft | 459 kts | 58° |
| 2026-05-07 16:50 | 33.63326 | -83.93829 | 20464 ft | 462 kts | 58° |
| 2026-05-07 16:50 | 33.64840 | -83.90413 | 20937 ft | 465 kts | 58° |
| 2026-05-07 16:50 | 33.66355 | -83.86991 | 21393 ft | 467 kts | 58° |
| 2026-05-07 16:51 | 33.67860 | -83.83585 | 21823 ft | 471 kts | 58° |
| 2026-05-07 16:51 | 33.69409 | -83.80080 | 22266 ft | 473 kts | 58° |
| 2026-05-07 16:51 | 33.70950 | -83.76592 | 22682 ft | 476 kts | 58° |
| 2026-05-07 16:51 | 33.72498 | -83.73079 | 23094 ft | 480 kts | 58° |
| 2026-05-07 16:52 | 33.74060 | -83.69527 | 23499 ft | 483 kts | 58° |
| 2026-05-07 16:52 | 33.75644 | -83.65958 | 23909 ft | 486 kts | 57° |
| 2026-05-07 16:52 | 33.77352 | -83.62515 | 24318 ft | 487 kts | 53° |
| 2026-05-07 16:52 | 33.79178 | -83.59081 | 24711 ft | 490 kts | 52° |
| 2026-05-07 16:53 | 33.81040 | -83.55633 | 25098 ft | 493 kts | 52° |
| 2026-05-07 16:53 | 33.82916 | -83.52164 | 25507 ft | 496 kts | 52° |
| 2026-05-07 16:53 | 33.84795 | -83.48684 | 25878 ft | 500 kts | 52° |
| 2026-05-07 16:53 | 33.86671 | -83.45188 | 26229 ft | 504 kts | 52° |
| 2026-05-07 16:54 | 33.88581 | -83.41615 | 26582 ft | 508 kts | 52° |
| 2026-05-07 16:54 | 33.90485 | -83.38052 | 26909 ft | 512 kts | 52° |
| 2026-05-07 16:54 | 33.92419 | -83.34423 | 27291 ft | 514 kts | 53° |
| 2026-05-07 16:54 | 33.94358 | -83.30782 | 27603 ft | 517 kts | 53° |
| 2026-05-07 16:55 | 33.96305 | -83.27123 | 27927 ft | 521 kts | 52° |
| 2026-05-07 16:55 | 33.98264 | -83.23432 | 28198 ft | 525 kts | 53° |
| 2026-05-07 16:55 | 34.00243 | -83.19699 | 28490 ft | 528 kts | 52° |
| 2026-05-07 16:55 | 34.02204 | -83.16003 | 28784 ft | 531 kts | 53° |
| 2026-05-07 16:56 | 34.04208 | -83.12222 | 29084 ft | 533 kts | 53° |
| 2026-05-07 16:56 | 34.06204 | -83.08449 | 29380 ft | 536 kts | 53° |
| 2026-05-07 16:56 | 34.10198 | -83.00879 | 29949 ft | 541 kts | 53° |
| 2026-05-07 16:57 | 34.12246 | -82.96999 | 30226 ft | 543 kts | 53° |
| 2026-05-07 16:57 | 34.14265 | -82.93150 | 30531 ft | 545 kts | 53° |
| 2026-05-07 16:57 | 34.16270 | -82.89324 | 30897 ft | 544 kts | 54° |
| 2026-05-07 16:57 | 34.18280 | -82.85474 | 31263 ft | 544 kts | 54° |
| 2026-05-07 16:58 | 34.20288 | -82.81620 | 31658 ft | 542 kts | 53° |
| 2026-05-07 16:58 | 34.22279 | -82.77796 | 32034 ft | 542 kts | 54° |
| 2026-05-07 16:58 | 34.24278 | -82.73950 | 32359 ft | 542 kts | 54° |
| 2026-05-07 16:58 | 34.26302 | -82.70058 | 32699 ft | 542 kts | 54° |
| 2026-05-07 16:59 | 34.28282 | -82.66246 | 33043 ft | 541 kts | 54° |
| 2026-05-07 16:59 | 34.30295 | -82.62366 | 33415 ft | 542 kts | 53° |
| 2026-05-07 16:59 | 34.32281 | -82.58523 | 33779 ft | 541 kts | 53° |
| 2026-05-07 16:59 | 34.34274 | -82.54677 | 34166 ft | 540 kts | 54° |
| 2026-05-07 17:00 | 34.36247 | -82.50857 | 34563 ft | 539 kts | 53° |
| 2026-05-07 17:00 | 34.38237 | -82.47002 | 34949 ft | 538 kts | 53° |
| 2026-05-07 17:00 | 34.40208 | -82.43181 | 35251 ft | 539 kts | 53° |
| 2026-05-07 17:00 | 34.42185 | -82.39353 | 35502 ft | 541 kts | 53° |
| 2026-05-07 17:01 | 34.44176 | -82.35473 | 35746 ft | 542 kts | 54° |
| 2026-05-07 17:01 | 34.46071 | -82.31509 | 36018 ft | 543 kts | 57° |
| 2026-05-07 17:01 | 34.47887 | -82.27535 | 36160 ft | 546 kts | 57° |
| 2026-05-07 17:01 | 34.49707 | -82.23488 | 36292 ft | 548 kts | 57° |
| 2026-05-07 17:02 | 34.51631 | -82.19511 | 36501 ft | 546 kts | 53° |
| 2026-05-07 17:02 | 34.53745 | -82.15731 | 36694 ft | 542 kts | 49° |
| 2026-05-07 17:02 | 34.56084 | -82.12141 | 36848 ft | 540 kts | 43° |
| 2026-05-07 17:02 | 34.58545 | -82.08722 | 36895 ft | 541 kts | 42° |
| 2026-05-07 17:03 | 34.63585 | -82.01910 | 36897 ft | 542 kts | 41° |
| 2026-05-07 17:03 | 34.68579 | -81.95108 | 36897 ft | 543 kts | 41° |
| 2026-05-07 17:04 | 34.73576 | -81.88234 | 36894 ft | 544 kts | 42° |
| 2026-05-07 17:04 | 34.78577 | -81.81308 | 36888 ft | 544 kts | 42° |
| 2026-05-07 17:05 | 34.83539 | -81.74427 | 36889 ft | 545 kts | 42° |
| 2026-05-07 17:05 | 34.88535 | -81.67487 | 36882 ft | 546 kts | 41° |
| 2026-05-07 17:06 | 34.93532 | -81.60533 | 36881 ft | 547 kts | 41° |
| 2026-05-07 17:06 | 34.98519 | -81.53577 | 36882 ft | 547 kts | 41° |
| 2026-05-07 17:07 | 35.03543 | -81.46564 | 36882 ft | 548 kts | 41° |
| 2026-05-07 17:07 | 35.08540 | -81.39562 | 36882 ft | 549 kts | 41° |
| 2026-05-07 17:08 | 35.13562 | -81.32510 | 36879 ft | 549 kts | 42° |
| 2026-05-07 17:08 | 35.18565 | -81.25480 | 36885 ft | 550 kts | 42° |
| 2026-05-07 17:09 | 35.23552 | -81.18455 | 36884 ft | 550 kts | 42° |
| 2026-05-07 17:09 | 35.28568 | -81.11367 | 36887 ft | 551 kts | 41° |
| 2026-05-07 17:10 | 35.33586 | -81.04264 | 36889 ft | 551 kts | 42° |
| 2026-05-07 17:10 | 35.38562 | -80.97213 | 36889 ft | 552 kts | 42° |
| 2026-05-07 17:11 | 35.43596 | -80.90063 | 36891 ft | 552 kts | 42° |
| 2026-05-07 17:11 | 35.48566 | -80.82978 | 36893 ft | 551 kts | 41° |
| 2026-05-07 17:12 | 35.53576 | -80.75831 | 36896 ft | 550 kts | 42° |
| 2026-05-07 17:12 | 35.58540 | -80.68748 | 36894 ft | 552 kts | 42° |
| 2026-05-07 17:13 | 35.63540 | -80.61585 | 36893 ft | 554 kts | 42° |
| 2026-05-07 17:13 | 35.68550 | -80.54387 | 36890 ft | 553 kts | 41° |
| 2026-05-07 17:14 | 35.73523 | -80.47231 | 36887 ft | 552 kts | 42° |
| 2026-05-07 17:14 | 35.78486 | -80.40076 | 36884 ft | 551 kts | 41° |
| 2026-05-07 17:15 | 35.83473 | -80.32877 | 36879 ft | 552 kts | 43° |
| 2026-05-07 17:15 | 35.88468 | -80.25646 | 36884 ft | 554 kts | 42° |
| 2026-05-07 17:16 | 35.93430 | -80.18434 | 36882 ft | 554 kts | 43° |
| 2026-05-07 17:16 | 35.98083 | -80.10786 | 36881 ft | 561 kts | 51° |
| 2026-05-07 17:17 | 36.02285 | -80.02717 | 36886 ft | 562 kts | 52° |
| 2026-05-07 17:17 | 36.06478 | -79.94577 | 36894 ft | 561 kts | 51° |
| 2026-05-07 17:18 | 36.10777 | -79.86563 | 36893 ft | 559 kts | 49° |
| 2026-05-07 17:18 | 36.15268 | -79.78697 | 36893 ft | 559 kts | 48° |
| 2026-05-07 17:19 | 36.19752 | -79.70860 | 36899 ft | 561 kts | 49° |
| 2026-05-07 17:19 | 36.24197 | -79.63010 | 36892 ft | 558 kts | 48° |
| 2026-05-07 17:20 | 36.28664 | -79.55130 | 36895 ft | 562 kts | 49° |
| 2026-05-07 17:20 | 36.33134 | -79.47183 | 36897 ft | 560 kts | 48° |
| 2026-05-07 17:21 | 36.37564 | -79.39307 | 36898 ft | 560 kts | 49° |
| 2026-05-07 17:21 | 36.41952 | -79.31503 | 36900 ft | 561 kts | 49° |
| 2026-05-07 17:22 | 36.46407 | -79.23538 | 36910 ft | 562 kts | 49° |
| 2026-05-07 17:22 | 36.50832 | -79.15609 | 36909 ft | 562 kts | 49° |
| 2026-05-07 17:23 | 36.55285 | -79.07616 | 36911 ft | 563 kts | 49° |
| 2026-05-07 17:23 | 36.59723 | -78.99632 | 36913 ft | 563 kts | 50° |
| 2026-05-07 17:24 | 36.64153 | -78.91579 | 36920 ft | 564 kts | 50° |
| 2026-05-07 17:24 | 36.68566 | -78.83519 | 36915 ft | 563 kts | 50° |
| 2026-05-07 17:25 | 36.72715 | -78.75218 | 36928 ft | 570 kts | 57° |
| 2026-05-07 17:25 | 36.76379 | -78.66491 | 36927 ft | 569 kts | 58° |
| 2026-05-07 17:26 | 36.79978 | -78.57757 | 36941 ft | 570 kts | 58° |
| 2026-05-07 17:26 | 36.83615 | -78.49009 | 36943 ft | 570 kts | 58° |
| 2026-05-07 17:27 | 36.87257 | -78.40263 | 36943 ft | 569 kts | 59° |
| 2026-05-07 17:27 | 36.90897 | -78.31522 | 36938 ft | 570 kts | 59° |
| 2026-05-07 17:28 | 36.94546 | -78.22707 | 36935 ft | 570 kts | 59° |
| 2026-05-07 17:28 | 36.98163 | -78.13977 | 36938 ft | 570 kts | 59° |
| 2026-05-07 17:29 | 37.01808 | -78.05128 | 36945 ft | 572 kts | 59° |
| 2026-05-07 17:29 | 37.05421 | -77.96313 | 36948 ft | 570 kts | 59° |
| 2026-05-07 17:30 | 37.09041 | -77.87493 | 36947 ft | 570 kts | 59° |
| 2026-05-07 17:30 | 37.12666 | -77.78631 | 36950 ft | 571 kts | 59° |
| 2026-05-07 17:31 | 37.16273 | -77.69769 | 36951 ft | 571 kts | 59° |
| 2026-05-07 17:31 | 37.19862 | -77.60932 | 36962 ft | 571 kts | 59° |
| 2026-05-07 17:32 | 37.23458 | -77.52068 | 36962 ft | 571 kts | 59° |
| 2026-05-07 17:32 | 37.27063 | -77.43151 | 36958 ft | 570 kts | 59° |
| 2026-05-07 17:33 | 37.30645 | -77.34296 | 36962 ft | 572 kts | 60° |
| 2026-05-07 17:33 | 37.34198 | -77.25427 | 36962 ft | 571 kts | 59° |
| 2026-05-07 17:34 | 37.37762 | -77.16533 | 36952 ft | 571 kts | 60° |
| 2026-05-07 17:34 | 37.41341 | -77.07579 | 36952 ft | 571 kts | 60° |
| 2026-05-07 17:35 | 37.45425 | -76.99203 | 36949 ft | 559 kts | 44° |
| 2026-05-07 17:35 | 37.50878 | -76.92516 | 36952 ft | 538 kts | 26° |
| 2026-05-07 17:36 | 37.53939 | -76.89980 | 36952 ft | 524 kts | 17° |
| 2026-05-07 17:36 | 37.56635 | -76.88157 | 36956 ft | 522 kts | 14° |
| 2026-05-07 17:36 | 37.57418 | -76.87659 | 36596 ft | 520 kts | 15° |
| 2026-05-07 17:36 | 37.60620 | -76.85664 | 36825 ft | 514 kts | 15° |
| 2026-05-07 17:37 | 37.66973 | -76.81589 | 36933 ft | 512 kts | 16° |
| 2026-05-07 17:37 | 37.73276 | -76.77415 | 37005 ft | 514 kts | 16° |
| 2026-05-07 17:38 | 37.79640 | -76.73160 | 37027 ft | 522 kts | 16° |
| 2026-05-07 17:38 | 37.86034 | -76.68877 | 36954 ft | 525 kts | 16° |
| 2026-05-07 17:39 | 37.92556 | -76.64646 | 36930 ft | 523 kts | 14° |
| 2026-05-07 17:39 | 37.99073 | -76.60551 | 36923 ft | 523 kts | 14° |
| 2026-05-07 17:40 | 38.05567 | -76.56450 | 36920 ft | 525 kts | 14° |
| 2026-05-07 17:40 | 38.12096 | -76.52299 | 36919 ft | 526 kts | 14° |
| 2026-05-07 17:41 | 38.18669 | -76.48103 | 36929 ft | 526 kts | 14° |
| 2026-05-07 17:41 | 38.25201 | -76.43928 | 36907 ft | 529 kts | 15° |
| 2026-05-07 17:42 | 38.28458 | -76.41633 | 36627 ft | 534 kts | 19° |
| 2026-05-07 17:42 | 38.31582 | -76.39085 | 36352 ft | 540 kts | 24° |
| 2026-05-07 17:42 | 38.34595 | -76.36284 | 36074 ft | 543 kts | 27° |
| 2026-05-07 17:42 | 38.37600 | -76.33328 | 35788 ft | 542 kts | 28° |
| 2026-05-07 17:43 | 38.40556 | -76.30378 | 35511 ft | 541 kts | 28° |
| 2026-05-07 17:43 | 38.43509 | -76.27439 | 35240 ft | 542 kts | 28° |
| 2026-05-07 17:43 | 38.46482 | -76.24505 | 34966 ft | 543 kts | 28° |
| 2026-05-07 17:43 | 38.49502 | -76.21532 | 34688 ft | 543 kts | 28° |
| 2026-05-07 17:44 | 38.52473 | -76.18617 | 34420 ft | 544 kts | 28° |
| 2026-05-07 17:44 | 38.55480 | -76.15668 | 34093 ft | 546 kts | 28° |
| 2026-05-07 17:44 | 38.58495 | -76.12709 | 33622 ft | 548 kts | 28° |
| 2026-05-07 17:44 | 38.61533 | -76.09721 | 33033 ft | 551 kts | 29° |
| 2026-05-07 17:45 | 38.64555 | -76.06780 | 32380 ft | 550 kts | 28° |
| 2026-05-07 17:45 | 38.67621 | -76.03900 | 31688 ft | 549 kts | 28° |
| 2026-05-07 17:45 | 38.70734 | -76.01020 | 30961 ft | 550 kts | 28° |
| 2026-05-07 17:45 | 38.73800 | -75.98180 | 30226 ft | 552 kts | 28° |
| 2026-05-07 17:46 | 38.76908 | -75.95295 | 29603 ft | 549 kts | 29° |
| 2026-05-07 17:46 | 38.80001 | -75.92396 | 29135 ft | 545 kts | 29° |
| 2026-05-07 17:46 | 38.83035 | -75.89540 | 28663 ft | 540 kts | 29° |
| 2026-05-07 17:46 | 38.86026 | -75.86723 | 28184 ft | 535 kts | 28° |
| 2026-05-07 17:47 | 38.89022 | -75.83907 | 27697 ft | 531 kts | 28° |
| 2026-05-07 17:47 | 38.91957 | -75.81145 | 27207 ft | 527 kts | 28° |
| 2026-05-07 17:47 | 38.94895 | -75.78378 | 26740 ft | 523 kts | 28° |
| 2026-05-07 17:47 | 38.97826 | -75.75615 | 26696 ft | 525 kts | 29° |
| 2026-05-07 17:48 | 39.00774 | -75.72833 | 26717 ft | 528 kts | 28° |
| 2026-05-07 17:48 | 39.03756 | -75.70010 | 26748 ft | 528 kts | 29° |
| 2026-05-07 17:48 | 39.06695 | -75.67225 | 26768 ft | 528 kts | 28° |
| 2026-05-07 17:48 | 39.09654 | -75.64417 | 26798 ft | 528 kts | 28° |
| 2026-05-07 17:49 | 39.12635 | -75.61588 | 26818 ft | 529 kts | 28° |
| 2026-05-07 17:49 | 39.15583 | -75.58785 | 26836 ft | 529 kts | 29° |
| 2026-05-07 17:49 | 39.18569 | -75.55944 | 26860 ft | 530 kts | 28° |
| 2026-05-07 17:49 | 39.21508 | -75.53141 | 26846 ft | 530 kts | 28° |
| 2026-05-07 17:50 | 39.24470 | -75.50372 | 26388 ft | 528 kts | 27° |
| 2026-05-07 17:50 | 39.27476 | -75.47681 | 25806 ft | 524 kts | 26° |
| 2026-05-07 17:50 | 39.30499 | -75.45017 | 25266 ft | 520 kts | 26° |
| 2026-05-07 17:50 | 39.33477 | -75.42401 | 24755 ft | 515 kts | 27° |
| 2026-05-07 17:51 | 39.36410 | -75.39809 | 24260 ft | 511 kts | 27° |
| 2026-05-07 17:51 | 39.39325 | -75.37221 | 23781 ft | 506 kts | 27° |
| 2026-05-07 17:51 | 39.42192 | -75.34672 | 23298 ft | 502 kts | 27° |
| 2026-05-07 17:51 | 39.45090 | -75.32089 | 22795 ft | 498 kts | 28° |
| 2026-05-07 17:52 | 39.47907 | -75.29578 | 22314 ft | 493 kts | 28° |
| 2026-05-07 17:52 | 39.50716 | -75.27066 | 21829 ft | 489 kts | 28° |
| 2026-05-07 17:52 | 39.53462 | -75.24536 | 21439 ft | 483 kts | 29° |
| 2026-05-07 17:52 | 39.56175 | -75.21989 | 20964 ft | 478 kts | 30° |
| 2026-05-07 17:53 | 39.58828 | -75.19489 | 20498 ft | 474 kts | 30° |
| 2026-05-07 17:53 | 39.61488 | -75.16982 | 20014 ft | 470 kts | 30° |
| 2026-05-07 17:53 | 39.64129 | -75.14494 | 19535 ft | 465 kts | 30° |
| 2026-05-07 17:53 | 39.66702 | -75.12078 | 19065 ft | 460 kts | 30° |
| 2026-05-07 17:54 | 39.69331 | -75.09712 | 18586 ft | 454 kts | 27° |
| 2026-05-07 17:54 | 39.71941 | -75.07461 | 18103 ft | 449 kts | 27° |
| 2026-05-07 17:54 | 39.74517 | -75.05263 | 17623 ft | 445 kts | 27° |
| 2026-05-07 17:54 | 39.77100 | -75.03056 | 17137 ft | 441 kts | 27° |
| 2026-05-07 17:55 | 39.79641 | -75.00876 | 16663 ft | 437 kts | 27° |
| 2026-05-07 17:55 | 39.82140 | -74.98724 | 16204 ft | 432 kts | 28° |
| 2026-05-07 17:55 | 39.84627 | -74.96574 | 15765 ft | 427 kts | 28° |
| 2026-05-07 17:55 | 39.87092 | -74.94388 | 15293 ft | 424 kts | 29° |
| 2026-05-07 17:56 | 39.89490 | -74.92210 | 14818 ft | 421 kts | 30° |
| 2026-05-07 17:56 | 39.91817 | -74.89927 | 14338 ft | 420 kts | 35° |
| 2026-05-07 17:56 | 39.93963 | -74.87318 | 13853 ft | 420 kts | 42° |
| 2026-05-07 17:56 | 39.95922 | -74.84572 | 13373 ft | 417 kts | 45° |
| 2026-05-07 17:57 | 39.97847 | -74.81760 | 12887 ft | 413 kts | 45° |
| 2026-05-07 17:57 | 39.99109 | -74.79914 | 12568 ft | 410 kts | 45° |
| 2026-05-07 17:57 | 40.01643 | -74.76239 | 11927 ft | 405 kts | 44° |
| 2026-05-07 17:57 | 40.03519 | -74.73542 | 11451 ft | 401 kts | 44° |
| 2026-05-07 17:58 | 40.05374 | -74.70879 | 10980 ft | 397 kts | 44° |
| 2026-05-07 17:58 | 40.07224 | -74.68224 | 10542 ft | 391 kts | 44° |
| 2026-05-07 17:58 | 40.09026 | -74.65635 | 10150 ft | 385 kts | 43° |
| 2026-05-07 17:58 | 40.10795 | -74.63087 | 9989 ft | 372 kts | 43° |
| 2026-05-07 17:59 | 40.12539 | -74.60577 | 9990 ft | 371 kts | 43° |
| 2026-05-07 17:59 | 40.14278 | -74.58078 | 9994 ft | 371 kts | 43° |
| 2026-05-07 17:59 | 40.16007 | -74.55585 | 9990 ft | 370 kts | 43° |
| 2026-05-07 17:59 | 40.17733 | -74.53097 | 9989 ft | 370 kts | 43° |
| 2026-05-07 18:00 | 40.19461 | -74.50598 | 9990 ft | 371 kts | 43° |
| 2026-05-07 18:00 | 40.21243 | -74.48187 | 9990 ft | 368 kts | 39° |
| 2026-05-07 18:00 | 40.23082 | -74.45852 | 9986 ft | 368 kts | 39° |
| 2026-05-07 18:00 | 40.24924 | -74.43541 | 9985 ft | 368 kts | 38° |
| 2026-05-07 18:01 | 40.26778 | -74.41215 | 9987 ft | 367 kts | 39° |
| 2026-05-07 18:01 | 40.28606 | -74.38918 | 9986 ft | 368 kts | 39° |
| 2026-05-07 18:01 | 40.30455 | -74.36585 | 9978 ft | 368 kts | 39° |
| 2026-05-07 18:01 | 40.32304 | -74.34241 | 9980 ft | 362 kts | 39° |
| 2026-05-07 18:02 | 40.35743 | -74.29868 | 9971 ft | 330 kts | 39° |
| 2026-05-07 18:02 | 40.37371 | -74.27800 | 9797 ft | 324 kts | 39° |
| 2026-05-07 18:02 | 40.38992 | -74.25748 | 9413 ft | 322 kts | 39° |
| 2026-05-07 18:03 | 40.40573 | -74.23747 | 9078 ft | 318 kts | 39° |
| 2026-05-07 18:03 | 40.42152 | -74.21744 | 8781 ft | 313 kts | 39° |
| 2026-05-07 18:03 | 40.43703 | -74.19772 | 8477 ft | 308 kts | 39° |
| 2026-05-07 18:03 | 40.45227 | -74.17833 | 8189 ft | 303 kts | 39° |
| 2026-05-07 18:04 | 40.46729 | -74.15918 | 7836 ft | 300 kts | 39° |
| 2026-05-07 18:04 | 40.48213 | -74.14027 | 7501 ft | 292 kts | 40° |
| 2026-05-07 18:04 | 40.49663 | -74.12176 | 6948 ft | 286 kts | 40° |
| 2026-05-07 18:04 | 40.51066 | -74.10410 | 6381 ft | 279 kts | 38° |
| 2026-05-07 18:05 | 40.52554 | -74.08821 | 5785 ft | 271 kts | 32° |
| 2026-05-07 18:05 | 40.54094 | -74.07462 | 5241 ft | 263 kts | 29° |
| 2026-05-07 18:05 | 40.55584 | -74.06203 | 4989 ft | 245 kts | 28° |
| 2026-05-07 18:05 | 40.56960 | -74.05041 | 4843 ft | 227 kts | 28° |
| 2026-05-07 18:06 | 40.58257 | -74.03945 | 4470 ft | 221 kts | 28° |
| 2026-05-07 18:06 | 40.59547 | -74.02859 | 4015 ft | 218 kts | 28° |
| 2026-05-07 18:06 | 40.60828 | -74.01778 | 3545 ft | 217 kts | 29° |
| 2026-05-07 18:06 | 40.62074 | -74.00726 | 3124 ft | 213 kts | 30° |
| 2026-05-07 18:07 | 40.63255 | -73.99715 | 3059 ft | 190 kts | 29° |
| 2026-05-07 18:07 | 40.64348 | -73.98783 | 3016 ft | 184 kts | 28° |
| 2026-05-07 18:07 | 40.65415 | -73.97880 | 2978 ft | 183 kts | 28° |
| 2026-05-07 18:07 | 40.66452 | -73.96995 | 2945 ft | 165 kts | 29° |
| 2026-05-07 18:08 | 40.67342 | -73.96218 | 2835 ft | 143 kts | 28° |
| 2026-05-07 18:08 | 40.68163 | -73.95508 | 2762 ft | 139 kts | 27° |
| 2026-05-07 18:08 | 40.68972 | -73.94814 | 2688 ft | 138 kts | 28° |
| 2026-05-07 18:08 | 40.69736 | -73.94043 | 2600 ft | 139 kts | 37° |
| 2026-05-07 18:09 | 40.70422 | -73.93134 | 2501 ft | 140 kts | 41° |
| 2026-05-07 18:09 | 40.71089 | -73.92189 | 2390 ft | 139 kts | 42° |
| 2026-05-07 18:09 | 40.71743 | -73.91239 | 2235 ft | 141 kts | 49° |
| 2026-05-07 18:09 | 40.72116 | -73.90050 | 1999 ft | 145 kts | 71° |
| 2026-05-07 18:10 | 40.72334 | -73.88741 | 1783 ft | 145 kts | 73° |
| 2026-05-07 18:10 | 40.72536 | -73.87453 | 1574 ft | 144 kts | 73° |
| 2026-05-07 18:10 | 40.72746 | -73.86159 | 1369 ft | 144 kts | 73° |
| 2026-05-07 18:10 | 40.72969 | -73.84869 | 1160 ft | 143 kts | 68° |
| 2026-05-07 18:11 | 40.73529 | -73.83889 | 914 ft | 133 kts | 25° |
| 2026-05-07 18:11 | 40.74087 | -73.83558 | 751 ft | 133 kts | 18° |
| 2026-05-07 18:11 | 40.75278 | -73.83308 | 605 ft | 133 kts | 347° |
| 2026-05-07 18:11 | 40.76134 | -73.83753 | 447 ft | 133 kts | 324° |
| 2026-05-07 18:12 | 40.76723 | -73.84714 | 228 ft | 133 kts | 304° |
| 2026-05-07 18:12 | 40.77213 | -73.85735 | 48 ft | 131 kts | 303° |
| 2026-05-07 18:12 | 40.77654 | -73.86646 | 13 ft | 84 kts | 302° |
| 2026-05-07 18:12 | 40.77862 | -73.87084 | 14 ft | 37 kts | 303° |
| 2026-05-07 18:13 | 40.77915 | -73.87244 | 14 ft | 11 kts | 265° |
| 2026-05-07 18:13 | 40.77888 | -73.87344 | 14 ft | 9 kts | 244° |
| 2026-05-07 18:13 | 40.77847 | -73.87395 | 14 ft | 7 kts | 210° |
| 2026-05-07 18:13 | 40.77793 | -73.87397 | 14 ft | 8 kts | 166° |
| 2026-05-07 18:14 | 40.77772 | -73.87331 | 14 ft | 9 kts | 90° |
| 2026-05-07 18:14 | 40.77753 | -73.87229 | 14 ft | 13 kts | 120° |
| 2026-05-07 18:14 | 40.77700 | -73.87116 | 14 ft | 16 kts | 123° |
| 2026-05-07 18:14 | 40.77634 | -73.86978 | 13 ft | 18 kts | 121° |
| 2026-05-07 18:15 | 40.77562 | -73.86825 | 13 ft | 20 kts | 122° |
| 2026-05-07 18:15 | 40.77478 | -73.86677 | 13 ft | 20 kts | 121° |
| 2026-05-07 18:15 | 40.77404 | -73.86520 | 13 ft | 20 kts | 122° |
| 2026-05-07 18:15 | 40.77329 | -73.86362 | 12 ft | 20 kts | 122° |
| 2026-05-07 18:16 | 40.77253 | -73.86201 | 12 ft | 20 kts | 121° |
| 2026-05-07 18:16 | 40.77179 | -73.86092 | 12 ft | 12 kts | 174° |
| 2026-05-07 18:16 | 40.77106 | -73.86150 | 12 ft | 12 kts | 222° |
| 2026-05-07 18:16 | 40.77040 | -73.86231 | 12 ft | 13 kts | 224° |
| 2026-05-07 18:17 | 40.77002 | -73.86241 | 13 ft | 6 kts | 141° |
| 2026-05-07 18:17 | 40.76967 | -73.86190 | 12 ft | 8 kts | 131° |
| 2026-05-07 18:17 | 40.76952 | -73.86168 | 12 ft | 0 kts | 131° |